Time;durP1;ratioP1;P1;durP2;ratioP2;P2;SDS_P1;SDS_P2;PMS_P1;PMS_P2;Temp;Humidity;BMP_temperature;BMP_pressure;BME280_temperature;BME280_humidity;BME280_pressure;Samples;Min_cycle;Max_cycle;Signal;HPM_P1;HPM_P2
2021/12/24 00:00:18;;;;;;;0.20;0.20;;;;;;;19.17;37.91;100134.88;5126516;27;20038;-31
2021/12/24 00:02:43;;;;;;;0.20;0.20;;;;;;;19.15;37.73;100126.06;5145317;27;20136;-33
2021/12/24 00:05:10;;;;;;;0.20;0.20;;;;;;;19.16;37.99;100115.84;5125775;27;20096;-33
2021/12/24 00:07:39;;;;;;;0.20;0.20;;;;;;;19.15;37.77;100125.25;5131437;27;20482;-31
2021/12/24 00:10:08;;;;;;;0.20;0.20;;;;;;;19.15;37.83;100119.72;5128645;27;20045;-31
2021/12/24 00:12:36;;;;;;;;;;;;;;;19.14;37.79;100124.44;5146647;27;20087;-31
2021/12/24 00:15:14;;;;;;;0.20;0.20;;;;;;;19.14;37.67;100118.91;5126046;27;19919;-31
2021/12/24 00:17:40;;;;;;;0.20;0.20;;;;;;;19.14;37.92;100115.31;5139654;27;20498;-31
2021/12/24 00:20:25;;;;;;;0.20;0.20;;;;;;;19.13;37.76;100113.66;5123813;27;20039;-32
2021/12/24 00:35:04;;;;;;;0.20;0.20;;;;;;;19.14;37.91;100115.31;5125066;27;20035;-32
2021/12/24 00:35:08;;;;;;;0.20;0.20;;;;;;;19.14;37.98;100110.63;5110329;27;20108;-31
2021/12/24 00:36:39;;;;;;;0.20;0.20;;;;;;;19.13;37.87;100111.75;5102188;28;20703;-31
2021/12/24 00:39:04;;;;;;;0.20;0.20;;;;;;;19.13;38.01;100103.47;5110160;28;20342;-32
2021/12/24 00:41:30;;;;;;;0.20;0.20;;;;;;;19.14;37.75;100110.63;5110072;28;20047;-31
2021/12/24 00:43:56;;;;;;;0.20;0.20;;;;;;;19.14;37.85;100107.88;5093767;28;20074;-31
2021/12/24 00:46:22;;;;;;;0.20;0.20;;;;;;;19.14;37.95;100104.28;5091564;28;20474;-31
2021/12/24 00:48:48;;;;;;;0.20;0.20;;;;;;;19.13;37.91;100099.88;5091850;28;20478;-32
2021/12/24 00:51:20;;;;;;;0.20;0.20;;;;;;;19.13;37.92;100106.22;5112295;28;20048;-32
2021/12/24 00:56:24;;;;;;;0.20;0.20;;;;;;;19.14;38.02;100096.00;5171978;27;20120;-31
2021/12/24 00:58:49;;;;;;;0.20;0.20;;;;;;;19.12;38.09;100099.06;5159853;27;20053;-36
2021/12/24 01:01:15;;;;;;;0.20;0.20;;;;;;;19.12;37.93;100089.97;5156909;27;20046;-31
2021/12/24 01:03:42;;;;;;;0.20;0.20;;;;;;;19.11;37.84;100094.66;5155089;27;20077;-31
2021/12/24 01:06:07;;;;;;;0.20;0.20;;;;;;;19.12;38.11;100089.97;5156358;27;20070;-31
2021/12/24 01:08:33;;;;;;;0.20;0.20;;;;;;;19.12;38.04;100088.00;5155442;27;20039;-33
2021/12/24 01:11:03;;;;;;;0.20;0.20;;;;;;;19.12;37.93;100090.78;5154138;27;20400;-31
2021/12/24 01:13:28;;;;;;;0.20;0.20;;;;;;;19.11;38.14;100091.91;5122492;27;20039;-33
2021/12/24 01:16:01;;;;;;;0.20;0.20;;;;;;;19.12;38.13;100095.47;5160217;27;20578;-31
2021/12/24 01:19:05;;;;;;;0.20;0.20;;;;;;;19.11;38.12;100085.56;5119889;27;20046;-31
2021/12/24 01:21:39;;;;;;;0.20;0.20;;;;;;;19.11;37.87;100074.53;5142425;27;20042;-31
2021/12/24 01:24:03;;;;;;;0.20;0.20;;;;;;;19.11;38.02;100078.09;5137417;27;20487;-31
2021/12/24 01:26:56;;;;;;;0.20;0.20;;;;;;;19.10;38.15;100081.16;5157967;27;20482;-31
2021/12/24 01:42:49;;;;;;;0.20;0.20;;;;;;;19.10;38.06;100078.41;5155536;27;20039;-32
2021/12/24 01:45:20;;;;;;;0.20;0.20;;;;;;;19.10;38.02;100076.47;5139424;27;20042;-33
2021/12/24 01:47:46;;;;;;;0.20;0.20;;;;;;;19.10;38.02;100070.13;5157311;27;20397;-34
2021/12/24 01:50:14;;;;;;;0.20;0.20;;;;;;;19.10;38.13;100079.22;5156454;27;20389;-31
2021/12/24 01:52:40;;;;;;;0.20;0.20;;;;;;;19.09;38.02;100074.03;5158374;27;20038;-32
2021/12/24 01:55:06;;;;;;;0.20;0.20;;;;;;;19.11;37.96;100085.56;5134523;27;20296;-31
2021/12/24 01:57:32;;;;;;;0.20;0.20;;;;;;;19.09;38.19;100082.28;5159708;27;20039;-31
2021/12/24 01:59:59;;;;;;;0.20;0.20;;;;;;;19.09;38.11;100083.13;5156349;27;20042;-32
2021/12/24 02:02:27;;;;;;;0.20;0.20;;;;;;;19.09;38.04;100077.59;5134291;27;20034;-33
2021/12/24 02:04:53;;;;;;;0.20;0.20;;;;;;;19.09;38.23;100076.78;5136689;27;20095;-33
2021/12/24 02:07:18;;;;;;;0.20;0.20;;;;;;;19.08;38.28;100070.41;5145965;27;20068;-32
2021/12/24 02:09:44;;;;;;;0.20;0.20;;;;;;;19.08;38.28;100077.88;5136929;27;20084;-34
2021/12/24 02:12:11;;;;;;;0.20;0.20;;;;;;;19.08;38.16;100072.34;5139729;27;20065;-32
2021/12/24 02:14:39;;;;;;;0.20;0.20;;;;;;;19.08;38.30;100072.34;5143076;27;20042;-32
2021/12/24 02:17:27;;;;;;;0.20;0.20;;;;;;;19.09;38.06;100076.78;5123552;27;20446;-33
2021/12/24 02:28:30;;;;;;;0.20;0.20;;;;;;;19.08;38.37;100069.59;5093730;28;20095;-31
2021/12/24 02:30:55;;;;;;;0.20;0.20;;;;;;;19.08;38.16;100053.03;5105590;28;20689;-31
2021/12/24 02:33:22;;;;;;;0.20;0.20;;;;;;;19.07;38.22;100052.22;5121229;28;20061;-34
2021/12/24 02:35:48;;;;;;;0.20;0.20;;;;;;;19.07;38.09;100049.47;5116716;28;20039;-31
2021/12/24 02:38:14;;;;;;;0.20;0.20;;;;;;;19.07;38.12;100041.19;5118714;28;20134;-33
2021/12/24 02:40:40;;;;;;;0.20;0.20;;;;;;;19.07;38.23;100043.94;5120428;28;20074;-33
2021/12/24 02:43:10;;;;;;;0.20;0.20;;;;;;;19.06;38.24;100042.31;5102286;28;20055;-31
2021/12/24 02:45:38;;;;;;;0.20;0.20;;;;;;;19.07;38.07;100037.59;5104233;28;20047;-31
2021/12/24 02:53:59;;;;;;;0.20;0.20;;;;;;;19.08;38.26;100036.47;5113344;27;20091;-33
2021/12/24 02:56:13;;;;;;;0.20;0.20;;;;;;;19.07;38.12;100021.88;5115152;27;20402;-33
2021/12/24 02:58:43;;;;;;;0.20;0.20;;;;;;;19.06;38.26;100028.50;5144303;27;20503;-33
2021/12/24 03:01:10;;;;;;;0.20;0.20;;;;;;;19.07;38.35;100027.38;5122888;27;20046;-31
2021/12/24 03:03:36;;;;;;;0.20;0.20;;;;;;;19.05;38.09;100030.47;5123419;27;20059;-33
2021/12/24 03:06:02;;;;;;;0.20;0.20;;;;;;;19.05;38.23;100013.09;5149487;27;20089;-32
2021/12/24 03:08:28;;;;;;;0.20;0.20;;;;;;;19.05;38.39;100021.38;5128759;27;20446;-33
2021/12/24 03:10:55;;;;;;;0.20;0.20;;;;;;;19.04;38.13;100015.03;5145365;27;20053;-34
2021/12/24 03:13:22;;;;;;;0.20;0.20;;;;;;;19.05;38.32;100013.91;5143553;27;20039;-32
2021/12/24 03:15:50;;;;;;;0.20;0.20;;;;;;;19.06;38.14;100017.47;5150335;27;20047;-31
2021/12/24 03:18:23;;;;;;;0.20;0.20;;;;;;;19.06;38.31;100020.22;5144174;27;20078;-32
2021/12/24 03:20:56;;;;;;;0.20;0.20;;;;;;;19.05;38.12;100024.94;5146381;27;20038;-32
2021/12/24 03:23:34;;;;;;;0.20;0.20;;;;;;;19.05;38.48;100024.13;5138873;27;20043;-32
2021/12/24 03:25:59;;;;;;;0.20;0.20;;;;;;;19.04;38.41;100031.59;5129336;27;20407;-32
2021/12/24 03:28:25;;;;;;;0.20;0.20;;;;;;;19.05;38.43;100029.63;5144304;27;20323;-33
2021/12/24 03:30:51;;;;;;;0.20;0.20;;;;;;;19.05;38.18;100038.72;5145774;27;20038;-33
2021/12/24 03:33:16;;;;;;;0.20;0.20;;;;;;;19.04;38.32;100030.75;5146430;27;20051;-33
2021/12/24 03:35:42;;;;;;;0.20;0.20;;;;;;;19.04;38.47;100034.34;5148457;27;20046;-32
2021/12/24 03:38:08;;;;;;;0.20;0.20;;;;;;;19.04;38.44;100037.09;5146295;27;20051;-33
2021/12/24 03:40:33;;;;;;;0.20;0.20;;;;;;;19.04;38.23;100037.09;5146200;27;20054;-32
2021/12/24 03:42:59;;;;;;;0.20;0.20;;;;;;;19.05;38.24;100032.41;5147747;27;20385;-32
2021/12/24 03:45:30;;;;;;;0.20;0.20;;;;;;;19.04;38.21;100025.22;5144147;27;20038;-35
2021/12/24 03:48:01;;;;;;;0.20;0.20;;;;;;;19.04;38.24;100022.47;5142939;27;20035;-35
2021/12/24 03:50:41;;;;;;;0.20;0.20;;;;;;;19.04;38.48;100020.53;5145621;27;20133;-33
2021/12/24 03:54:55;;;;;;;0.30;0.30;;;;;;;19.04;38.32;100017.78;5126767;27;20589;-33
2021/12/24 03:55:52;;;;;;;0.20;0.20;;;;;;;19.04;38.49;100023.31;5129560;27;20248;-33
2021/12/24 03:58:18;;;;;;;0.20;0.20;;;;;;;19.04;38.39;100020.53;5143890;27;20042;-31
2021/12/24 04:00:44;;;;;;;0.20;0.20;;;;;;;19.04;38.47;100019.69;5123397;27;20039;-31
2021/12/24 04:03:10;;;;;;;0.30;0.30;;;;;;;19.04;38.33;100023.31;5129853;27;20485;-31
2021/12/24 04:05:35;;;;;;;0.25;0.25;;;;;;;19.04;38.27;100019.69;5130753;27;20042;-31
2021/12/24 04:08:01;;;;;;;0.20;0.20;;;;;;;19.02;38.31;100022.78;5132473;27;20065;-32
2021/12/24 04:10:38;;;;;;;0.20;0.20;;;;;;;19.02;38.25;100020.00;5129711;27;20111;-31
2021/12/24 04:13:04;;;;;;;0.20;0.20;;;;;;;19.04;38.54;100027.97;5115626;27;20057;-32
2021/12/24 04:15:29;;;;;;;0.20;0.20;;;;;;;19.04;38.31;100027.97;5132448;27;20046;-31
2021/12/24 04:17:55;;;;;;;0.20;0.20;;;;;;;19.03;38.43;100024.41;5133150;27;20043;-33
2021/12/24 04:25:52;;;;;;;0.20;0.20;;;;;;;19.02;38.83;100031.06;5114115;28;20072;-32
2021/12/24 04:28:18;;;;;;;0.20;0.20;;;;;;;19.03;38.57;100035.44;5128031;28;20039;-31
2021/12/24 04:30:49;;;;;;;0.20;0.20;;;;;;;19.03;38.58;100034.63;5128467;28;20045;-31
2021/12/24 04:33:22;;;;;;;0.20;0.20;;;;;;;19.03;38.29;100034.63;5126936;28;20039;-33
2021/12/24 04:36:50;;;;;;;0.20;0.20;;;;;;;19.03;38.42;100035.44;5128083;28;20039;-31
2021/12/24 04:38:47;;;;;;;0.20;0.20;;;;;;;19.03;38.66;100034.63;5093004;28;20046;-33
2021/12/24 04:52:53;;;;;;;0.20;0.20;;;;;;;19.03;38.64;100043.72;5103407;28;20107;-31
2021/12/24 05:03:36;;;;;;;0.20;0.20;;;;;;;19.03;38.62;100042.91;5094081;28;20103;-32
2021/12/24 05:06:26;;;;;;;0.20;0.20;;;;;;;19.02;38.62;100039.31;5127885;28;20050;-31
2021/12/24 05:08:51;;;;;;;0.20;0.20;;;;;;;19.02;38.52;100038.50;5111378;28;20541;-33
2021/12/24 05:11:18;;;;;;;0.20;0.20;;;;;;;19.02;38.52;100044.03;5126688;28;20051;-33
2021/12/24 05:13:43;;;;;;;0.20;0.20;;;;;;;19.01;38.72;100040.47;5106580;28;20046;-34
2021/12/24 05:16:38;;;;;;;0.20;0.20;;;;;;;19.03;38.57;100051.19;5108874;28;20035;-32
2021/12/24 05:21:32;;;;;;;0.20;0.20;;;;;;;19.02;38.44;100052.31;5095110;28;20592;-32
2021/12/24 05:21:42;;;;;;;0.20;0.20;;;;;;;19.02;38.67;100047.59;5110958;28;20035;-31
2021/12/24 05:24:18;;;;;;;0.20;0.20;;;;;;;19.03;38.71;100053.94;5125135;28;20047;-36
2021/12/24 05:26:47;;;;;;;0.20;0.20;;;;;;;19.02;38.57;100055.88;5108791;28;20047;-35
2021/12/24 05:29:14;;;;;;;0.20;0.20;;;;;;;19.02;38.74;100058.66;5109284;28;20432;-34
2021/12/24 05:31:39;;;;;;;0.20;0.20;;;;;;;19.02;38.61;100060.59;5127832;28;20039;-33
2021/12/24 05:34:06;;;;;;;0.20;0.20;;;;;;;19.02;38.52;100057.81;5124891;28;20134;-34
2021/12/24 05:36:32;;;;;;;0.20;0.20;;;;;;;19.03;38.73;100065.78;5126022;28;20039;-33
2021/12/24 05:38:58;;;;;;;0.20;0.20;;;;;;;19.02;38.67;100057.81;5126060;28;20100;-32
2021/12/24 05:41:24;;;;;;;0.20;0.20;;;;;;;19.01;38.53;100056.19;5125949;28;20043;-31
2021/12/24 05:43:50;;;;;;;0.20;0.20;;;;;;;19.03;38.68;100056.69;5125465;28;20050;-33
2021/12/24 05:46:16;;;;;;;0.20;0.20;;;;;;;19.02;38.50;100060.59;5105761;28;20046;-33
2021/12/24 05:48:42;;;;;;;0.20;0.20;;;;;;;19.02;38.65;100064.16;5107112;28;20401;-33
2021/12/24 05:51:08;;;;;;;0.25;0.25;;;;;;;19.02;38.70;100066.09;5127071;28;21670;-33
2021/12/24 05:53:34;;;;;;;0.20;0.20;;;;;;;19.02;38.76;100060.59;5123887;28;20051;-31
2021/12/24 05:55:59;;;;;;;0.20;0.20;;;;;;;19.02;38.69;100063.34;5127357;28;20187;-34
2021/12/24 05:58:25;;;;;;;0.20;0.20;;;;;;;19.03;38.45;100053.94;5127024;28;20559;-32
2021/12/24 06:00:51;;;;;;;0.20;0.20;;;;;;;19.02;38.61;100060.59;5126896;28;20062;-31
2021/12/24 06:03:17;;;;;;;0.20;0.20;;;;;;;19.02;38.75;100060.59;5107001;28;20043;-32
2021/12/24 06:05:45;;;;;;;0.20;0.20;;;;;;;19.02;38.77;100063.34;5108617;28;20046;-33
2021/12/24 06:08:11;;;;;;;0.20;0.20;;;;;;;19.02;38.76;100063.34;5108841;28;20039;-32
2021/12/24 06:10:37;;;;;;;0.20;0.20;;;;;;;19.02;38.52;100061.41;5125392;28;20047;-33
2021/12/24 06:13:04;;;;;;;0.20;0.20;;;;;;;19.01;38.74;100070.81;5125392;28;20398;-33
2021/12/24 06:15:33;;;;;;;0.20;0.20;;;;;;;19.02;38.70;100069.69;5126020;28;20051;-32
2021/12/24 06:17:59;;;;;;;0.20;0.20;;;;;;;19.02;38.72;100072.44;5108068;28;20040;-33
2021/12/24 06:20:26;;;;;;;0.20;0.20;;;;;;;19.01;38.81;100073.56;5108262;28;20039;-32
2021/12/24 06:22:52;;;;;;;0.20;0.20;;;;;;;19.02;38.61;100068.88;5107198;28;20126;-32
2021/12/24 06:25:19;;;;;;;0.20;0.20;;;;;;;19.02;38.61;100068.88;5107163;28;20045;-32
2021/12/24 06:27:46;;;;;;;0.20;0.20;;;;;;;19.03;38.83;100073.25;5126201;28;20504;-34
2021/12/24 06:30:12;;;;;;;0.20;0.20;;;;;;;19.02;38.85;100069.69;5108282;28;20058;-34
2021/12/24 06:32:38;;;;;;;0.20;0.20;;;;;;;19.03;38.77;100076.84;5126032;28;20039;-33
2021/12/24 06:35:04;;;;;;;0.20;0.20;;;;;;;19.03;38.83;100073.25;5106242;28;20039;-33
2021/12/24 06:37:30;;;;;;;0.20;0.20;;;;;;;19.03;38.69;100084.28;5125375;28;20039;-33
2021/12/24 06:39:56;;;;;;;0.20;0.20;;;;;;;19.03;38.82;100081.53;5125454;28;20086;-32
2021/12/24 06:42:25;;;;;;;0.20;0.20;;;;;;;19.01;38.76;100076.31;5126587;28;20043;-33
2021/12/24 06:44:52;;;;;;;0.20;0.20;;;;;;;19.02;38.66;100064.16;5105440;28;20047;-33
2021/12/24 06:47:18;;;;;;;0.20;0.20;;;;;;;19.01;38.85;100068.06;5125383;27;20470;-33
2021/12/24 06:49:44;;;;;;;0.20;0.20;;;;;;;19.02;38.69;100074.38;5126775;28;20049;-34
2021/12/24 06:52:09;;;;;;;0.20;0.20;;;;;;;19.02;38.68;100077.97;5126234;28;20043;-34
2021/12/24 06:54:35;;;;;;;0.20;0.20;;;;;;;19.02;38.62;100082.66;5123403;28;20473;-34
2021/12/24 06:57:01;;;;;;;0.20;0.20;;;;;;;19.01;38.84;100068.06;5127342;28;21418;-33
2021/12/24 06:59:28;;;;;;;0.20;0.20;;;;;;;19.02;38.74;100069.69;5126631;28;20051;-31
2021/12/24 07:01:53;;;;;;;0.20;0.20;;;;;;;19.02;38.76;100060.59;5126768;28;20083;-31
2021/12/24 07:04:20;;;;;;;0.20;0.20;;;;;;;19.02;38.65;100064.16;5104509;28;20035;-33
2021/12/24 07:06:46;;;;;;;0.28;0.28;;;;;;;19.01;38.91;100079.09;5107288;28;20047;-32
2021/12/24 07:09:13;;;;;;;0.20;0.20;;;;;;;19.02;38.74;100082.66;5125687;28;20427;-33
2021/12/24 07:11:40;;;;;;;0.20;0.20;;;;;;;19.02;38.76;100077.97;5126166;28;20401;-33
2021/12/24 07:14:06;;;;;;;0.20;0.20;;;;;;;19.02;39.01;100074.38;5125946;28;20044;-31
2021/12/24 07:16:32;;;;;;;0.20;0.20;;;;;;;19.02;38.71;100077.16;5127450;28;20047;-33
2021/12/24 07:18:58;;;;;;;0.20;0.20;;;;;;;19.01;38.85;100081.84;5127127;28;20058;-34
2021/12/24 07:21:23;;;;;;;0.20;0.20;;;;;;;19.03;39.05;100081.53;5125943;28;20151;-32
2021/12/24 07:23:49;;;;;;;0.20;0.20;;;;;;;19.02;38.70;100089.00;5124691;28;20043;-34
2021/12/24 07:26:15;;;;;;;0.20;0.20;;;;;;;19.02;38.93;100093.69;5126416;28;20130;-33
2021/12/24 07:28:40;;;;;;;0.20;0.20;;;;;;;19.01;38.98;100092.88;5126585;28;20035;-33
2021/12/24 07:31:06;;;;;;;0.20;0.20;;;;;;;19.02;39.00;100090.94;5127104;28;20043;-33
2021/12/24 07:33:32;;;;;;;0.20;0.20;;;;;;;19.01;38.86;100098.41;5124224;28;20049;-31
2021/12/24 07:35:57;;;;;;;0.20;0.20;;;;;;;19.01;38.88;100086.56;5128119;27;20058;-33
2021/12/24 07:38:23;;;;;;;0.20;0.20;;;;;;;19.02;38.75;100099.22;5128406;28;20050;-33
2021/12/24 07:40:49;;;;;;;0.20;0.20;;;;;;;19.01;38.93;100103.94;5128296;28;20062;-31
2021/12/24 07:43:15;;;;;;;0.20;0.20;;;;;;;19.01;39.09;100103.09;5127951;28;20047;-32
2021/12/24 07:45:42;;;;;;;0.20;0.20;;;;;;;19.02;38.78;100097.28;5130110;27;20510;-33
2021/12/24 07:48:13;;;;;;;0.20;0.20;;;;;;;19.02;38.80;100102.78;5094267;28;20050;-31
2021/12/24 07:53:20;;;;;;;0.20;0.20;;;;;;;19.02;38.78;100105.56;5170116;27;20123;-32
2021/12/24 07:55:46;;;;;;;0.20;0.20;;;;;;;19.00;39.09;100105.06;5165923;27;20034;-33
2021/12/24 07:58:14;;;;;;;0.20;0.20;;;;;;;19.00;39.07;100101.47;5164122;27;20646;-34
2021/12/24 08:00:41;;;;;;;0.20;0.20;;;;;;;19.00;38.86;100088.50;5148164;27;20041;-34
2021/12/24 08:03:07;;;;;;;0.20;0.20;;;;;;;19.02;39.00;100096.47;5163606;27;20058;-31
2021/12/24 08:05:38;;;;;;;0.20;0.20;;;;;;;19.01;38.92;100092.88;5146559;27;20129;-33
2021/12/24 08:08:04;;;;;;;0.20;0.20;;;;;;;19.02;39.08;100090.94;5163478;27;20034;-31
2021/12/24 08:10:31;;;;;;;0.20;0.20;;;;;;;19.00;39.14;100094.00;5145006;27;20102;-31
2021/12/24 08:12:57;;;;;;;0.20;0.20;;;;;;;19.01;38.91;100086.56;5163212;27;20062;-33
2021/12/24 08:15:22;;;;;;;0.20;0.20;;;;;;;19.02;38.88;100089.00;5144093;27;20404;-34
2021/12/24 08:17:48;;;;;;;0.20;0.20;;;;;;;19.02;38.95;100080.72;5157264;27;20043;-31
2021/12/24 08:20:15;;;;;;;0.20;0.20;;;;;;;19.01;39.14;100089.31;5125239;27;20232;-33
2021/12/24 08:22:41;;;;;;;0.20;0.20;;;;;;;19.01;39.19;100090.13;5138554;27;20100;-31
2021/12/24 08:25:09;;;;;;;0.20;0.20;;;;;;;19.01;38.93;100087.38;5138117;27;20042;-31
2021/12/24 08:27:35;;;;;;;0.20;0.20;;;;;;;19.01;39.13;100087.38;5123936;27;20043;-31
2021/12/24 08:30:02;;;;;;;0.20;0.20;;;;;;;19.02;39.15;100090.94;5137260;27;20039;-31
2021/12/24 08:32:28;;;;;;;0.20;0.20;;;;;;;19.01;38.93;100075.50;5141810;27;20039;-31
2021/12/24 08:34:55;;;;;;;0.20;0.20;;;;;;;19.02;39.00;100079.91;5139928;27;20096;-34
2021/12/24 08:37:21;;;;;;;0.20;0.20;;;;;;;19.01;39.09;100078.28;5141146;27;20045;-32
2021/12/24 08:39:47;;;;;;;0.20;0.20;;;;;;;19.01;38.95;100081.84;5140260;27;20490;-32
2021/12/24 08:42:13;;;;;;;0.20;0.20;;;;;;;19.01;39.02;100081.03;5141210;27;20038;-33
2021/12/24 08:44:38;;;;;;;0.20;0.20;;;;;;;19.02;39.10;100074.38;5121478;27;20703;-31
2021/12/24 08:47:05;;;;;;;0.20;0.20;;;;;;;19.01;39.19;100070.81;5140097;27;20035;-33
2021/12/24 08:49:31;;;;;;;0.20;0.20;;;;;;;19.03;39.13;100076.03;5140389;27;20095;-33
2021/12/24 08:51:58;;;;;;;0.20;0.20;;;;;;;19.01;39.25;100079.09;5123659;27;20039;-32
2021/12/24 08:54:24;;;;;;;0.20;0.20;;;;;;;19.02;39.18;100077.16;5140037;27;20052;-32
2021/12/24 08:56:52;;;;;;;0.20;0.20;;;;;;;19.02;39.20;100069.69;5139488;27;20049;-32
2021/12/24 08:59:18;;;;;;;0.20;0.20;;;;;;;19.03;39.17;100073.25;5123746;27;20035;-31
2021/12/24 09:01:44;;;;;;;0.20;0.20;;;;;;;19.01;39.10;100062.53;5142471;27;20477;-31
2021/12/24 09:04:11;;;;;;;0.20;0.20;;;;;;;19.02;38.97;100055.06;5111665;28;20051;-31
2021/12/24 09:06:38;;;;;;;0.20;0.20;;;;;;;19.02;38.94;100055.06;5122278;28;20043;-31
2021/12/24 09:09:06;;;;;;;0.20;0.20;;;;;;;19.02;39.10;100057.81;5126644;28;20046;-31
2021/12/24 09:11:33;;;;;;;;;;;;;;;19.02;38.98;100060.59;5127383;28;20096;-31
2021/12/24 09:13:59;;;;;;;0.20;0.20;;;;;;;19.01;39.26;100048.75;5126580;28;19925;-31
2021/12/24 09:16:25;;;;;;;0.20;0.20;;;;;;;19.01;39.23;100048.75;5128858;28;20035;-31
2021/12/24 09:18:59;;;;;;;0.20;0.20;;;;;;;19.01;39.13;100048.75;5126557;28;20096;-31
2021/12/24 09:21:25;;;;;;;0.20;0.20;;;;;;;19.01;39.15;100048.75;5127401;28;20035;-33
2021/12/24 09:23:51;;;;;;;0.20;0.20;;;;;;;19.03;39.25;100048.41;5108088;28;20049;-33
2021/12/24 09:26:30;;;;;;;0.20;0.20;;;;;;;19.01;39.19;100045.97;5118380;28;20184;-31
2021/12/24 09:28:57;;;;;;;0.20;0.20;;;;;;;19.00;39.14;100041.59;5123962;28;20035;-32
2021/12/24 09:31:23;;;;;;;0.20;0.20;;;;;;;19.02;39.12;100055.06;5109381;28;20049;-31
2021/12/24 09:33:50;;;;;;;0.20;0.20;;;;;;;19.01;39.13;100043.22;5126200;28;20326;-31
2021/12/24 09:36:22;;;;;;;0.20;0.20;;;;;;;19.02;38.87;100030.22;5127194;28;20050;-34
2021/12/24 09:38:47;;;;;;;0.20;0.20;;;;;;;19.01;39.28;100023.91;5120197;28;20097;-34
2021/12/24 09:41:13;;;;;;;0.30;0.30;;;;;;;19.01;39.44;100034.13;5125766;28;20402;-33
2021/12/24 09:43:39;;;;;;;0.20;0.20;;;;;;;19.02;39.06;100042.09;5125385;27;20039;-32
2021/12/24 09:46:04;;;;;;;0.20;0.20;;;;;;;19.02;39.21;100044.03;5126881;28;20091;-33
2021/12/24 09:48:30;;;;;;;0.20;0.20;;;;;;;19.02;39.03;100039.31;5125203;28;20039;-34
2021/12/24 09:50:56;;;;;;;0.20;0.20;;;;;;;19.02;39.34;100041.28;5126833;28;20055;-35
2021/12/24 09:53:21;;;;;;;0.20;0.20;;;;;;;19.03;39.24;100042.91;5123009;28;21254;-31
2021/12/24 09:55:47;;;;;;;0.22;0.22;;;;;;;19.02;39.11;100035.75;5127559;28;20046;-31
2021/12/24 09:58:13;;;;;;;0.20;0.20;;;;;;;19.02;39.00;100036.56;5127592;28;20043;-31
2021/12/24 10:00:39;;;;;;;0.20;0.20;;;;;;;19.02;39.28;100038.50;5124541;28;20047;-33
2021/12/24 10:03:05;;;;;;;0.20;0.20;;;;;;;19.00;39.11;100030.53;5106600;28;20047;-32
2021/12/24 10:05:35;;;;;;;0.20;0.20;;;;;;;19.02;39.28;100033.81;5126935;28;20047;-31
2021/12/24 10:08:19;;;;;;;0.20;0.20;;;;;;;19.02;39.31;100033.00;5127555;27;20039;-31
2021/12/24 10:10:48;;;;;;;0.20;0.20;;;;;;;19.02;39.20;100033.81;5103830;28;20485;-31
2021/12/24 10:13:35;;;;;;;0.30;0.30;;;;;;;19.02;39.43;100030.22;5107206;28;20043;-31
2021/12/24 10:16:05;;;;;;;0.20;0.20;;;;;;;19.01;39.21;100037.69;5123856;27;20042;-31
2021/12/24 10:18:43;;;;;;;0.30;0.30;;;;;;;19.02;39.27;100036.56;5123722;28;20203;-32
2021/12/24 10:21:13;;;;;;;0.20;0.20;;;;;;;19.03;39.35;100038.19;5108596;28;20122;-32
2021/12/24 10:23:44;;;;;;;0.20;0.20;;;;;;;19.02;39.17;100041.28;5123651;28;20051;-33
2021/12/24 10:26:14;;;;;;;0.20;0.20;;;;;;;19.02;39.34;100035.75;5109063;28;20091;-33
2021/12/24 10:28:48;;;;;;;0.20;0.20;;;;;;;19.02;39.43;100036.56;5124190;28;20085;-32
2021/12/24 10:31:20;;;;;;;0.20;0.20;;;;;;;19.02;39.49;100044.03;5108164;28;20087;-34
2021/12/24 10:34:08;;;;;;;0.20;0.20;;;;;;;19.02;39.44;100042.09;5106880;28;20280;-33
2021/12/24 10:39:49;;;;;;;0.20;0.20;;;;;;;19.02;39.40;100039.31;5154452;27;20205;-33
2021/12/24 10:44:53;;;;;;;0.20;0.20;;;;;;;19.02;39.36;100049.56;5151602;27;20129;-33
2021/12/24 10:47:23;;;;;;;0.20;0.20;;;;;;;19.01;39.21;100034.94;5136558;27;20046;-32
2021/12/24 10:50:06;;;;;;;0.20;0.20;;;;;;;19.01;39.20;100034.13;5121062;27;20087;-32
2021/12/24 10:52:57;;;;;;;0.20;0.20;;;;;;;19.03;39.29;100037.38;5140861;27;20095;-32
2021/12/24 10:55:51;;;;;;;0.20;0.20;;;;;;;19.03;39.37;100031.88;5155683;27;20392;-32
2021/12/24 10:58:20;;;;;;;0.20;0.20;;;;;;;19.02;39.32;100038.50;5141317;27;20043;-32
2021/12/24 11:00:52;;;;;;;0.20;0.20;;;;;;;19.03;39.33;100034.63;5159260;27;20126;-31
2021/12/24 11:03:22;;;;;;;0.20;0.20;;;;;;;19.03;39.44;100038.19;5136732;27;20038;-31
2021/12/24 11:05:52;;;;;;;0.20;0.20;;;;;;;19.02;39.28;100033.81;5140751;27;20035;-31
2021/12/24 11:08:20;;;;;;;0.20;0.20;;;;;;;19.03;39.26;100038.19;5151361;27;20430;-32
2021/12/24 11:10:48;;;;;;;0.20;0.20;;;;;;;19.02;39.31;100038.50;5153436;27;20043;-31
2021/12/24 11:13:16;;;;;;;0.20;0.20;;;;;;;19.03;39.30;100031.88;5133321;27;20053;-32
2021/12/24 11:15:45;;;;;;;0.20;0.20;;;;;;;19.01;39.35;100037.69;5149976;27;20050;-33
2021/12/24 11:18:16;;;;;;;0.20;0.20;;;;;;;19.03;39.45;100034.63;5152721;27;20035;-31
2021/12/24 11:20:43;;;;;;;0.20;0.20;;;;;;;19.02;39.54;100031.06;5133740;27;20054;-33
2021/12/24 11:23:11;;;;;;;0.20;0.20;;;;;;;19.02;39.59;100028.28;5155094;27;20046;-31
2021/12/24 11:25:39;;;;;;;0.20;0.20;;;;;;;19.02;39.29;100027.47;5141685;27;20492;-31
2021/12/24 11:28:06;;;;;;;0.20;0.20;;;;;;;19.03;39.35;100023.59;5139802;27;20046;-32
2021/12/24 11:30:33;;;;;;;0.20;0.20;;;;;;;19.02;39.33;100028.28;5137635;27;20038;-31
2021/12/24 11:32:59;;;;;;;0.20;0.20;;;;;;;19.03;39.50;100024.41;5154658;27;20473;-31
2021/12/24 11:35:26;;;;;;;0.20;0.20;;;;;;;19.04;39.58;100028.81;5138146;27;20070;-31
2021/12/24 11:37:53;;;;;;;0.20;0.20;;;;;;;19.03;39.45;100035.44;5154989;27;20034;-31
2021/12/24 11:40:22;;;;;;;0.20;0.20;;;;;;;19.03;39.56;100026.34;5151239;27;20088;-31
2021/12/24 11:42:54;;;;;;;0.20;0.20;;;;;;;19.03;39.53;100020.84;5137222;27;20047;-33
2021/12/24 11:45:23;;;;;;;0.20;0.20;;;;;;;19.03;39.46;100029.91;5139051;27;20416;-31
2021/12/24 11:47:50;;;;;;;0.20;0.20;;;;;;;19.04;39.52;100025.22;5144921;27;20047;-33
2021/12/24 11:50:16;;;;;;;0.20;0.20;;;;;;;19.03;39.37;100024.41;5151932;27;20043;-31
2021/12/24 11:52:43;;;;;;;0.20;0.20;;;;;;;19.02;39.31;100008.97;5152086;27;20130;-33
2021/12/24 11:55:09;;;;;;;0.30;0.30;;;;;;;19.03;39.59;100007.03;5139680;27;20508;-31
2021/12/24 11:57:34;;;;;;;0.30;0.30;;;;;;;19.03;39.36;100013.38;5140937;27;20054;-31
2021/12/24 12:00:21;;;;;;;0.20;0.20;;;;;;;19.02;39.72;100006.22;5142220;27;20035;-31
2021/12/24 12:02:46;;;;;;;0.20;0.20;;;;;;;19.04;39.53;100011.41;5114138;27;20396;-31
2021/12/24 12:05:18;;;;;;;0.20;0.20;;;;;;;19.04;39.37;100004.00;5136430;27;20051;-33
2021/12/24 12:07:44;;;;;;;0.20;0.20;;;;;;;19.04;39.45;100011.41;5124980;27;20047;-31
2021/12/24 12:10:10;;;;;;;0.20;0.20;;;;;;;19.03;39.58;100010.59;5117673;27;20054;-31
2021/12/24 12:12:38;;;;;;;0.20;0.20;;;;;;;19.03;39.42;100016.13;5138885;27;20050;-31
2021/12/24 12:15:26;;;;;;;0.20;0.20;;;;;;;19.03;39.44;100016.13;5100493;27;20051;-31
2021/12/24 12:17:54;;;;;;;0.20;0.20;;;;;;;19.03;39.55;100010.59;5102994;28;20052;-32
2021/12/24 12:20:47;;;;;;;;;;;;;;;19.04;39.35;100016.94;5132095;27;20451;-33
2021/12/24 12:24:05;;;;;;;0.20;0.20;;;;;;;19.03;39.49;100016.13;5125651;27;20370;-31
2021/12/24 12:26:41;;;;;;;0.20;0.20;;;;;;;19.02;39.57;100019.19;5102558;27;20469;-31
2021/12/24 12:29:28;;;;;;;0.20;0.20;;;;;;;19.03;39.59;100012.56;5133802;27;20039;-32
2021/12/24 12:32:16;;;;;;;0.20;0.20;;;;;;;19.03;39.48;100020.84;5119483;27;20047;-34
2021/12/24 12:37:28;;;;;;;0.20;0.20;;;;;;;19.04;39.43;100022.47;5175338;27;20640;-33
2021/12/24 12:40:04;;;;;;;0.20;0.20;;;;;;;19.03;39.34;100012.56;5161836;27;20055;-32
2021/12/24 12:48:22;;;;;;;0.20;0.20;;;;;;;19.03;39.49;100013.38;5164266;27;20557;-33
2021/12/24 12:50:54;;;;;;;0.20;0.20;;;;;;;19.03;39.65;100007.03;5142385;27;20049;-33
2021/12/24 12:53:28;;;;;;;0.20;0.20;;;;;;;19.04;39.55;100011.41;5139751;27;20068;-34
2021/12/24 12:56:18;;;;;;;0.20;0.20;;;;;;;19.03;39.60;100007.84;5123392;27;20046;-34